Time;durP1;ratioP1;P1;durP2;ratioP2;P2;SDS_P1;SDS_P2;PMS_P1;PMS_P2;Temp;Humidity;BMP_temperature;BMP_pressure;BME280_temperature;BME280_humidity;BME280_pressure;Samples;Min_cycle;Max_cycle;Signal;HPM_P1;HPM_P2
2022/06/21 00:00:55;;;;;;;8.97;4.53;;;15.70;99.90;;;;;;4936996;29;20430;-82
2022/06/21 00:03:23;;;;;;;6.73;3.87;;;15.60;99.90;;;;;;4954164;29;20825;-82
2022/06/21 00:05:50;;;;;;;6.97;4.20;;;15.60;99.90;;;;;;4954114;29;20798;-82
2022/06/21 00:08:21;;;;;;;5.93;4.43;;;15.50;99.90;;;;;;4954218;29;20584;-82
2022/06/21 00:10:47;;;;;;;6.30;3.60;;;15.50;99.90;;;;;;4954169;29;20496;-82
2022/06/21 00:13:17;;;;;;;8.13;4.30;;;15.40;99.90;;;;;;4953941;29;20513;-82
2022/06/21 00:15:44;;;;;;;6.70;4.27;;;15.40;99.90;;;;;;4953937;29;20492;-83
2022/06/21 00:18:16;;;;;;;5.20;4.13;;;15.40;99.90;;;;;;4954096;29;20814;-82
2022/06/21 00:20:43;;;;;;;4.90;3.70;;;15.30;99.90;;;;;;4954009;29;20426;-83
2022/06/21 00:23:17;;;;;;;7.47;4.60;;;15.30;99.90;;;;;;4953880;29;20506;-82
2022/06/21 00:25:46;;;;;;;5.60;5.07;;;15.30;99.90;;;;;;4953831;29;20916;-82
2022/06/21 00:28:15;;;;;;;7.17;4.10;;;15.30;99.90;;;;;;4953907;29;20461;-82
2022/06/21 00:30:41;;;;;;;10.00;4.43;;;15.30;99.90;;;;;;4953572;29;20469;-81
2022/06/21 00:33:15;;;;;;;6.33;4.30;;;15.20;99.90;;;;;;4953609;29;20433;-79
2022/06/21 00:35:43;;;;;;;4.20;3.80;;;15.20;99.90;;;;;;4953199;29;20505;-82
2022/06/21 00:38:31;;;;;;;8.93;4.53;;;15.20;99.90;;;;;;4954774;29;20465;-82
2022/06/21 00:41:00;;;;;;;5.93;3.50;;;15.20;99.90;;;;;;4953829;29;20474;-80
2022/06/21 00:43:32;;;;;;;4.67;3.80;;;15.20;99.90;;;;;;4954540;29;20485;-81
2022/06/21 00:45:59;;;;;;;5.77;3.60;;;15.20;99.90;;;;;;4954575;29;20436;-80
2022/06/21 00:48:39;;;;;;;8.20;3.63;;;15.20;99.90;;;;;;4954616;29;20429;-81
2022/06/21 00:51:14;;;;;;;4.63;3.23;;;15.20;99.90;;;;;;4954523;29;20418;-81
2022/06/21 00:54:08;;;;;;;4.07;3.40;;;15.10;99.90;;;;;;4954609;29;20438;-81
2022/06/21 00:56:38;;;;;;;7.20;4.37;;;15.10;99.90;;;;;;4954668;29;20442;-81
2022/06/21 00:59:29;;;;;;;5.03;3.60;;;15.10;99.90;;;;;;4954474;29;20472;-80
2022/06/21 01:01:58;;;;;;;7.27;3.60;;;15.10;99.90;;;;;;4956591;28;20803;-81
2022/06/21 01:04:35;;;;;;;5.73;3.67;;;15.00;99.90;;;;;;4957804;29;20485;-81
2022/06/21 01:07:05;;;;;;;5.70;3.60;;;14.90;99.90;;;;;;4957935;29;20430;-82
2022/06/21 01:09:34;;;;;;;3.43;3.13;;;15.00;99.90;;;;;;4957929;29;20430;-82
2022/06/21 01:12:15;;;;;;;6.57;3.93;;;14.90;99.90;;;;;;4957840;29;20465;-82
2022/06/21 01:14:48;;;;;;;4.57;4.13;;;14.80;99.90;;;;;;4957786;29;20577;-90
2022/06/21 01:17:15;;;;;;;3.60;3.30;;;14.80;99.90;;;;;;4960048;29;20520;-84
2022/06/21 01:19:46;;;;;;;3.50;3.20;;;14.70;99.90;;;;;;4957656;29;20434;-85
2022/06/21 01:22:51;;;;;;;4.83;4.07;;;14.70;99.90;;;;;;4957640;29;20569;-81
2022/06/21 04:32:40;;;;;;;7.95;6.13;;;14.00;99.90;;;;;;4999293;23;20465;-73
2022/06/21 04:35:20;;;;;;;15.27;5.67;;;14.00;99.90;;;;;;4933979;29;20250;-85
2022/06/21 04:38:05;;;;;;;6.23;5.00;;;14.10;99.90;;;;;;4938123;29;20473;-78
2022/06/21 04:40:40;;;;;;;12.00;4.90;;;14.20;99.90;;;;;;4938361;29;20473;-79
2022/06/21 04:43:19;;;;;;;6.10;4.87;;;14.30;99.90;;;;;;4938141;29;20468;-77
2022/06/21 04:45:56;;;;;;;10.03;5.23;;;14.30;99.90;;;;;;4947830;29;20468;-78
2022/06/21 04:48:21;;;;;;;9.30;6.07;;;14.40;99.90;;;;;;4957483;29;20438;-75
2022/06/21 04:50:58;;;;;;;7.40;5.23;;;14.40;99.90;;;;;;4956985;29;20937;-75
2022/06/21 04:53:34;;;;;;;8.00;5.27;;;14.50;99.90;;;;;;4957117;29;20181;-83
2022/06/21 04:56:11;;;;;;;7.00;5.50;;;14.50;99.90;;;;;;4957141;29;20429;-77
2022/06/21 04:58:37;;;;;;;6.90;5.37;;;14.40;99.90;;;;;;4957216;29;20437;-77
2022/06/21 05:01:29;;;;;;;6.87;6.17;;;14.40;99.90;;;;;;4956792;29;20419;-76
2022/06/21 05:03:52;;;;;;;11.67;5.63;;;14.50;99.90;;;;;;4937616;29;20307;-76
2022/06/21 05:06:18;;;;;;;5.53;5.03;;;14.60;99.90;;;;;;4938001;29;20461;-77
2022/06/21 05:08:47;;;;;;;8.83;5.73;;;14.70;99.90;;;;;;4942209;29;20423;-77
2022/06/21 05:11:13;;;;;;;6.03;4.90;;;14.80;99.90;;;;;;4943552;29;20921;-79
2022/06/21 05:13:43;;;;;;;7.43;5.90;;;14.90;99.90;;;;;;4946745;29;20941;-77
2022/06/21 05:16:15;;;;;;;5.80;4.73;;;15.00;99.90;;;;;;4947465;29;20906;-77
2022/06/21 05:18:45;;;;;;;9.63;4.80;;;15.10;99.90;;;;;;4940013;29;20434;-77
2022/06/21 05:21:16;;;;;;;8.80;4.13;;;15.10;99.90;;;;;;4946592;29;20430;-77
2022/06/21 05:23:42;;;;;;;6.53;3.60;;;15.40;99.90;;;;;;4946062;29;20565;-77
2022/06/21 05:26:17;;;;;;;7.20;2.63;;;15.50;99.90;;;;;;4946392;29;20521;-78
2022/06/21 05:28:57;;;;;;;4.87;3.33;;;15.70;99.90;;;;;;4942848;29;21004;-78
2022/06/21 05:31:26;;;;;;;7.03;3.30;;;15.90;99.90;;;;;;4943798;29;20477;-76
2022/06/21 05:34:01;;;;;;;5.03;3.00;;;16.00;99.90;;;;;;4945698;29;20418;-76
2022/06/21 05:36:30;;;;;;;4.47;3.40;;;16.10;99.90;;;;;;4946054;29;20430;-76
2022/06/21 05:39:00;;;;;;;7.20;2.70;;;16.30;99.90;;;;;;4941873;29;20463;-77
2022/06/21 05:41:34;;;;;;;5.30;3.73;;;16.50;99.90;;;;;;4945218;29;20435;-76
2022/06/21 05:44:08;;;;;;;6.60;3.03;;;16.50;99.90;;;;;;4943985;29;20895;-76
2022/06/21 05:46:42;;;;;;;5.60;3.00;;;16.60;99.90;;;;;;4955668;28;20422;-76
2022/06/21 05:49:29;;;;;;;7.33;3.40;;;16.60;99.90;;;;;;4956784;29;20459;-76
2022/06/21 05:51:57;;;;;;;4.60;2.97;;;16.70;99.90;;;;;;4956644;29;20433;-76
2022/06/21 05:54:31;;;;;;;6.03;3.20;;;16.70;99.90;;;;;;4956842;29;20434;-76
2022/06/21 05:57:00;;;;;;;5.10;3.00;;;16.60;99.90;;;;;;4956908;29;20430;-76
2022/06/21 05:59:26;;;;;;;7.37;3.10;;;16.70;99.90;;;;;;4956962;29;20788;-76
2022/06/21 06:01:51;;;;;;;7.80;3.30;;;16.80;99.90;;;;;;4956604;29;20425;-76
2022/06/21 06:04:29;;;;;;;5.83;3.30;;;16.90;99.90;;;;;;4956830;29;20217;-76
2022/06/21 06:06:57;;;;;;;8.80;3.63;;;16.90;99.90;;;;;;4956820;29;20185;-76
2022/06/21 06:09:27;;;;;;;9.70;3.20;;;17.10;99.90;;;;;;4956832;29;20427;-76
2022/06/21 06:12:34;;;;;;;4.47;3.37;;;17.00;99.90;;;;;;4956540;29;20889;-76
2022/06/21 06:15:19;;;;;;;7.67;3.10;;;17.20;99.90;;;;;;4948805;29;20445;-76
2022/06/21 06:17:49;;;;;;;9.63;2.70;;;17.50;99.90;;;;;;4956559;29;20430;-76
2022/06/21 06:20:26;;;;;;;6.70;2.37;;;17.50;99.90;;;;;;4956523;29;20430;-76
2022/06/21 06:23:24;;;;;;;5.43;2.80;;;17.60;99.90;;;;;;4953160;29;20440;-77
2022/06/21 06:25:57;;;;;;;5.70;2.70;;;17.60;99.90;;;;;;4944012;29;20438;-79
2022/06/21 06:28:44;;;;;;;8.87;3.67;;;17.70;99.90;;;;;;4946600;29;20430;-79
2022/06/21 06:31:20;;;;;;;7.23;3.27;;;17.70;99.90;;;;;;4942373;29;20543;-79
2022/06/21 06:33:52;;;;;;;7.03;3.33;;;17.80;99.90;;;;;;4944280;29;20438;-79
2022/06/21 06:36:21;;;;;;;10.53;3.03;;;17.90;99.90;;;;;;4944890;29;20449;-80
2022/06/21 06:38:46;;;;;;;6.50;3.20;;;18.10;99.90;;;;;;4946265;29;20430;-80
2022/06/21 06:41:29;;;;;;;5.30;3.30;;;18.10;99.90;;;;;;4944990;29;20478;-83
2022/06/21 06:44:04;;;;;;;4.70;2.60;;;18.20;99.90;;;;;;4943615;29;20572;-82
2022/06/21 06:46:42;;;;;;;3.33;3.03;;;18.20;99.90;;;;;;4942482;29;20824;-81
2022/06/21 06:49:16;;;;;;;9.20;2.80;;;18.30;99.90;;;;;;4941650;29;20525;-80
2022/06/21 06:51:55;;;;;;;5.63;2.60;;;18.40;99.90;;;;;;4944049;29;20470;-78
2022/06/21 06:54:46;;;;;;;4.53;2.90;;;18.50;99.90;;;;;;4944953;29;20467;-77
2022/06/21 06:57:45;;;;;;;7.50;3.23;;;18.30;99.90;;;;;;4944785;29;20430;-78
2022/06/21 07:00:20;;;;;;;6.33;3.00;;;18.50;99.90;;;;;;4943968;29;20914;-78
2022/06/21 07:02:52;;;;;;;6.07;2.80;;;18.60;99.90;;;;;;4943684;29;20962;-78
2022/06/21 07:05:20;;;;;;;5.47;2.80;;;18.70;99.90;;;;;;4944570;29;20437;-84
2022/06/21 07:07:48;;;;;;;9.03;2.87;;;18.60;99.90;;;;;;4945841;29;20438;-83
2022/06/21 07:10:18;;;;;;;5.90;3.97;;;18.70;99.90;;;;;;4944630;29;20431;-84
2022/06/21 07:12:44;;;;;;;4.47;2.80;;;18.80;99.90;;;;;;4943776;29;20428;-83
2022/06/21 07:15:12;;;;;;;7.23;3.00;;;18.90;99.90;;;;;;4945276;29;20512;-81
2022/06/21 07:17:54;;;;;;;7.60;2.67;;;18.90;99.90;;;;;;4945155;29;20186;-82
2022/06/21 07:20:26;;;;;;;7.40;3.00;;;18.80;99.90;;;;;;4944297;29;20514;-85
2022/06/21 07:22:55;;;;;;;7.53;3.00;;;18.90;99.90;;;;;;4942184;29;20427;-78
2022/06/21 07:25:47;;;;;;;6.63;2.70;;;18.90;99.90;;;;;;4943540;29;20958;-80
2022/06/21 07:28:35;;;;;;;5.97;2.70;;;19.10;99.90;;;;;;4935986;29;20435;-78
2022/06/21 07:31:08;;;;;;;3.87;2.60;;;19.00;99.90;;;;;;4934845;29;20533;-80
2022/06/21 07:33:48;;;;;;;5.50;3.03;;;19.00;99.90;;;;;;4935303;29;20966;-79
2022/06/21 07:36:21;;;;;;;6.63;3.23;;;18.90;99.90;;;;;;4934973;29;20503;-80
2022/06/21 07:39:04;;;;;;;3.70;2.67;;;19.00;99.90;;;;;;4935288;29;20422;-80
2022/06/21 07:41:36;;;;;;;6.13;3.30;;;19.00;99.90;;;;;;4935202;29;20841;-79
2022/06/21 07:44:10;;;;;;;4.83;3.20;;;18.90;99.90;;;;;;4934336;29;20653;-79
2022/06/21 07:46:42;;;;;;;4.30;3.23;;;18.90;99.90;;;;;;4935135;29;20430;-79
2022/06/21 07:49:37;;;;;;;6.03;3.13;;;19.00;99.90;;;;;;4935063;29;20435;-78
2022/06/21 07:52:10;;;;;;;4.80;3.00;;;18.90;99.90;;;;;;4933089;29;20435;-80
2022/06/21 07:54:47;;;;;;;3.17;2.50;;;18.80;99.90;;;;;;4935116;29;20510;-81
2022/06/21 07:57:24;;;;;;;11.17;2.80;;;19.10;99.90;;;;;;4935105;29;20433;-81
2022/06/21 07:59:57;;;;;;;9.50;2.93;;;19.00;99.90;;;;;;4934831;29;20795;-81
2022/06/21 08:08:18;;;;;;;5.30;2.47;;;19.20;99.90;;;;;;4935288;29;20530;-82
2022/06/21 08:10:59;;;;;;;7.60;3.17;;;19.30;99.90;;;;;;4935353;29;20462;-81
2022/06/21 08:13:25;;;;;;;5.17;3.13;;;19.20;99.90;;;;;;4938864;29;20430;-84
2022/06/21 08:16:13;;;;;;;4.70;2.77;;;19.30;99.90;;;;;;4938845;29;20426;-79
2022/06/21 08:18:44;;;;;;;3.00;2.37;;;19.40;99.90;;;;;;4938920;29;20201;-79
2022/06/21 08:21:19;;;;;;;3.57;2.43;;;19.60;99.90;;;;;;4938623;29;20787;-79
2022/06/21 08:23:49;;;;;;;4.40;1.93;;;19.10;99.90;;;;;;4938486;29;20536;-78
2022/06/21 08:26:39;;;;;;;6.07;2.57;;;19.20;99.90;;;;;;4938673;29;20918;-78
2022/06/21 08:29:11;;;;;;;3.60;2.00;;;19.40;99.90;;;;;;4938591;29;20426;-78
2022/06/21 08:31:45;;;;;;;7.23;2.47;;;19.60;99.90;;;;;;4938367;29;20817;-76
2022/06/21 08:34:32;;;;;;;6.60;2.63;;;19.70;99.90;;;;;;4938372;29;20426;-76
2022/06/21 08:37:10;;;;;;;4.90;2.47;;;19.70;99.90;;;;;;4938195;29;20949;-77
2022/06/21 08:39:50;;;;;;;5.80;3.00;;;19.90;99.90;;;;;;4938304;29;20426;-77
2022/06/21 08:42:46;;;;;;;5.57;2.33;;;20.10;99.90;;;;;;4938656;29;20780;-77
2022/06/21 08:48:10;;;;;;;5.43;2.03;;;19.90;99.90;;;;;;4938156;29;20470;-77
2022/06/21 08:51:03;;;;;;;3.00;2.10;;;19.80;97.40;;;;;;4938371;29;20423;-79
2022/06/21 08:53:53;;;;;;;2.13;1.57;;;19.80;99.30;;;;;;4938187;29;20435;-78
2022/06/21 08:56:27;;;;;;;3.67;1.97;;;20.00;94.50;;;;;;4938027;29;20442;-78
2022/06/21 08:58:55;;;;;;;3.10;1.80;;;20.00;96.30;;;;;;4938009;29;20427;-80
2022/06/21 09:01:44;;;;;;;3.47;1.97;;;20.00;96.30;;;;;;4937963;29;20966;-79
2022/06/21 09:04:12;;;;;;;3.60;2.03;;;19.90;98.60;;;;;;4909759;29;20489;-81
2022/06/21 09:06:57;;;;;;;3.50;2.00;;;19.50;99.70;;;;;;4938248;29;20419;-81
2022/06/21 09:09:50;;;;;;;3.13;1.83;;;19.60;99.90;;;;;;4937916;29;20434;-83
2022/06/21 09:12:35;;;;;;;4.83;1.90;;;19.90;99.90;;;;;;4938466;29;20490;-83
2022/06/21 09:15:21;;;;;;;4.60;2.07;;;20.10;99.90;;;;;;4938073;29;20442;-83
2022/06/21 09:18:14;;;;;;;13.20;2.00;;;20.00;96.00;;;;;;4938206;29;20422;-81
2022/06/21 09:20:55;;;;;;;3.93;2.80;;;19.90;96.50;;;;;;4937558;29;20434;-80
2022/06/21 09:23:51;;;;;;;3.47;1.80;;;20.20;96.90;;;;;;4936913;29;20474;-82
2022/06/21 09:26:30;;;;;;;2.60;2.13;;;20.00;98.60;;;;;;4937751;29;20566;-81
2022/06/21 09:29:18;;;;;;;3.70;1.80;;;20.20;98.20;;;;;;4942004;29;20435;-80
2022/06/21 09:32:29;;;;;;;3.60;2.03;;;20.30;98.70;;;;;;4942259;29;20970;-81
2022/06/21 09:35:36;;;;;;;1.70;1.30;;;20.50;96.40;;;;;;4944600;29;20450;-81
2022/06/21 09:38:26;;;;;;;2.00;1.67;;;20.40;95.20;;;;;;4956508;29;20441;-80
2022/06/21 09:41:26;;;;;;;4.37;2.07;;;20.50;93.50;;;;;;4945532;29;20450;-83
2022/06/21 09:44:15;;;;;;;3.73;1.33;;;20.70;92.60;;;;;;4930338;29;21097;-78
2022/06/21 09:46:55;;;;;;;3.80;2.17;;;20.60;91.90;;;;;;4945174;29;20439;-78
2022/06/21 09:49:41;;;;;;;3.40;2.17;;;20.60;91.60;;;;;;4940795;29;20442;-78
2022/06/21 09:52:21;;;;;;;3.90;2.20;;;20.60;92.60;;;;;;4937018;29;20426;-78
2022/06/21 09:54:56;;;;;;;2.43;2.23;;;20.70;92.20;;;;;;4936942;29;20430;-76
2022/06/21 09:57:34;;;;;;;2.27;1.53;;;20.60;96.00;;;;;;4936735;29;20426;-77
2022/06/21 10:00:22;;;;;;;2.77;1.97;;;20.90;97.50;;;;;;4945607;29;20496;-77
2022/06/21 10:03:26;;;;;;;4.30;2.23;;;21.00;96.50;;;;;;4945846;29;20454;-76
2022/06/21 10:05:51;;;;;;;4.50;2.60;;;21.20;92.30;;;;;;4955825;29;20453;-78
2022/06/21 10:08:20;;;;;;;3.50;2.10;;;21.30;91.70;;;;;;4956313;29;20442;-76
2022/06/21 10:11:09;;;;;;;3.27;2.17;;;21.40;91.00;;;;;;4955736;29;20282;-75
2022/06/21 10:14:01;;;;;;;3.00;2.10;;;21.20;90.30;;;;;;4955775;29;20450;-78
2022/06/21 10:17:11;;;;;;;5.30;2.03;;;21.20;92.40;;;;;;4955828;29;20439;-79
2022/06/21 10:20:14;;;;;;;2.80;2.00;;;21.40;91.30;;;;;;4942262;29;20965;-79
2022/06/21 10:23:10;;;;;;;2.50;2.30;;;21.30;90.40;;;;;;4946146;29;20434;-79
2022/06/21 10:25:54;;;;;;;4.77;2.40;;;21.10;90.40;;;;;;4945500;29;20439;-77
2022/06/21 10:28:53;;;;;;;2.03;1.70;;;20.90;91.20;;;;;;4946158;29;20422;-76
2022/06/21 10:31:58;;;;;;;3.37;2.30;;;20.90;92.40;;;;;;4921513;29;20511;-76
2022/06/21 10:34:42;;;;;;;2.57;2.37;;;20.90;95.00;;;;;;4946830;29;20458;-77
2022/06/21 10:37:27;;;;;;;3.67;2.47;;;21.00;95.20;;;;;;4955362;29;20939;-75
2022/06/21 10:40:07;;;;;;;7.90;2.50;;;21.10;91.10;;;;;;4955246;29;20472;-77
2022/06/21 10:42:49;;;;;;;3.37;1.90;;;21.00;93.30;;;;;;4955326;29;20422;-77
2022/06/21 10:45:52;;;;;;;4.50;2.30;;;21.20;93.90;;;;;;4955155;29;20481;-77
2022/06/21 10:48:33;;;;;;;3.00;2.20;;;21.30;95.70;;;;;;4955281;29;20430;-77
2022/06/21 10:51:39;;;;;;;2.90;2.37;;;21.40;92.70;;;;;;4955117;29;20433;-77
2022/06/21 10:54:33;;;;;;;8.43;2.70;;;21.60;93.80;;;;;;4955074;29;20576;-79
2022/06/21 10:57:20;;;;;;;6.03;3.10;;;21.70;92.60;;;;;;4954783;29;20931;-77
2022/06/21 11:03:01;;;;;;;3.63;1.63;;;21.90;88.70;;;;;;4917122;29;20455;-76
2022/06/21 11:05:48;;;;;;;6.70;2.20;;;21.80;90.80;;;;;;4916842;29;20452;-79
2022/06/21 11:08:26;;;;;;;4.77;2.17;;;21.80;91.40;;;;;;4916804;29;20487;-77
2022/06/21 11:11:00;;;;;;;2.70;2.30;;;22.00;91.00;;;;;;4919977;29;20511;-76
2022/06/21 11:13:34;;;;;;;4.07;2.97;;;22.00;92.00;;;;;;4943144;29;21044;-74
2022/06/21 11:16:36;;;;;;;8.00;3.30;;;22.10;90.80;;;;;;4938028;29;20446;-74
2022/06/21 11:19:17;;;;;;;3.93;2.87;;;22.00;92.60;;;;;;4935375;29;20502;-74
2022/06/21 11:22:06;;;;;;;4.80;2.30;;;21.90;90.90;;;;;;4935256;29;20438;-75
2022/06/21 11:24:47;;;;;;;4.43;2.70;;;22.00;90.80;;;;;;4935323;29;20482;-74
2022/06/21 11:27:47;;;;;;;4.53;2.53;;;22.00;91.30;;;;;;4935460;29;20462;-74
2022/06/21 11:30:20;;;;;;;3.47;2.30;;;22.00;91.60;;;;;;4935255;29;20434;-74
2022/06/21 11:33:16;;;;;;;4.50;2.13;;;22.00;91.50;;;;;;4935167;29;20438;-74
2022/06/21 11:35:59;;;;;;;4.70;2.60;;;21.90;91.70;;;;;;4935051;29;20438;-74
2022/06/21 11:38:58;;;;;;;2.90;2.17;;;21.70;90.20;;;;;;4935214;29;20434;-74
2022/06/21 11:42:04;;;;;;;4.03;2.13;;;21.60;91.80;;;;;;4935063;29;20524;-73
2022/06/21 11:44:35;;;;;;;3.10;2.30;;;21.70;90.30;;;;;;4934808;29;20557;-74
2022/06/21 11:47:11;;;;;;;3.00;2.23;;;21.70;87.10;;;;;;4934900;29;20429;-73
2022/06/21 11:49:47;;;;;;;5.00;2.30;;;21.50;87.00;;;;;;4935040;29;20446;-73
2022/06/21 11:52:41;;;;;;;6.83;2.70;;;21.50;90.10;;;;;;4935098;29;20477;-74
2022/06/21 11:55:20;;;;;;;3.40;2.03;;;21.60;90.70;;;;;;4934849;29;20431;-74
2022/06/21 11:57:58;;;;;;;5.87;2.50;;;21.60;90.50;;;;;;4942599;29;20540;-75
2022/06/21 12:00:55;;;;;;;5.13;2.40;;;21.70;91.40;;;;;;4941937;29;20450;-73
2022/06/21 12:03:27;;;;;;;2.80;2.17;;;21.70;90.50;;;;;;4877302;29;21137;-73
2022/06/21 12:05:57;;;;;;;3.20;2.10;;;21.60;92.00;;;;;;4944669;29;20814;-74
2022/06/21 12:08:45;;;;;;;3.73;2.37;;;21.60;91.40;;;;;;4943554;29;20427;-73
2022/06/21 12:11:35;;;;;;;3.87;2.43;;;21.50;90.30;;;;;;4944081;29;20793;-75
2022/06/21 12:14:22;;;;;;;3.13;2.20;;;21.60;91.50;;;;;;4941355;29;20802;-75
2022/06/21 12:17:38;;;;;;;2.57;2.27;;;21.70;90.80;;;;;;4908089;29;20450;-74
2022/06/21 12:20:15;;;;;;;6.37;2.90;;;21.80;90.50;;;;;;4923971;29;20464;-77
2022/06/21 12:22:45;;;;;;;2.73;2.00;;;21.60;90.60;;;;;;4923642;29;20435;-75
2022/06/21 12:25:12;;;;;;;3.30;2.73;;;21.60;93.00;;;;;;4924659;29;20525;-75
2022/06/21 12:27:38;;;;;;;4.13;2.57;;;21.60;94.30;;;;;;4925881;29;20426;-74
2022/06/21 12:30:13;;;;;;;3.60;2.40;;;21.70;93.20;;;;;;4923699;29;20923;-74
2022/06/21 12:32:38;;;;;;;2.43;1.97;;;21.70;95.40;;;;;;4926660;29;20642;-75
2022/06/21 12:35:15;;;;;;;2.20;2.00;;;21.80;92.10;;;;;;4925779;29;20440;-74
2022/06/21 12:37:51;;;;;;;2.80;2.37;;;21.80;92.70;;;;;;4923396;29;20714;-73
2022/06/21 12:40:23;;;;;;;5.93;1.93;;;21.90;92.90;;;;;;4939351;29;20865;-73
2022/06/21 12:43:01;;;;;;;5.80;2.10;;;21.80;93.50;;;;;;4937905;29;20439;-75
2022/06/21 12:45:48;;;;;;;6.23;2.87;;;21.70;92.30;;;;;;4940342;29;20462;-75
2022/06/21 12:48:54;;;;;;;3.20;2.10;;;21.60;91.40;;;;;;4944356;29;20441;-73
2022/06/21 12:51:56;;;;;;;2.30;2.10;;;21.70;93.10;;;;;;4936454;29;20430;-74
2022/06/21 12:54:35;;;;;;;2.30;2.10;;;21.60;91.20;;;;;;4944319;29;20468;-74
2022/06/21 12:57:10;;;;;;;3.40;2.30;;;21.90;92.10;;;;;;4945223;29;20448;-73
2022/06/21 13:00:12;;;;;;;3.93;2.10;;;22.10;90.40;;;;;;4947973;29;20430;-73
2022/06/21 13:03:31;;;;;;;4.20;2.10;;;22.20;91.40;;;;;;4947935;29;20486;-75
2022/06/21 13:06:41;;;;;;;3.10;2.30;;;22.20;91.30;;;;;;4860045;29;20442;-76
2022/06/21 13:09:29;;;;;;;4.57;2.00;;;22.70;92.30;;;;;;4804654;29;20444;-74
2022/06/21 13:12:25;;;;;;;3.93;2.40;;;22.90;88.90;;;;;;4936270;29;20442;-75
2022/06/21 13:15:18;;;;;;;5.68;2.10;;;22.70;88.00;;;;;;4945598;29;20441;-76
2022/06/21 13:18:16;;;;;;;2.30;2.00;;;22.80;85.70;;;;;;4944936;29;20520;-74
2022/06/21 13:21:07;;;;;;;5.67;2.77;;;22.90;88.40;;;;;;4937362;29;20570;-74
2022/06/21 13:23:54;;;;;;;6.33;2.87;;;23.00;89.20;;;;;;4937490;29;20534;-74
2022/06/21 13:26:46;;;;;;;5.50;1.80;;;23.00;87.60;;;;;;4937570;29;20450;-74
2022/06/21 13:29:28;;;;;;;2.33;2.13;;;23.10;90.20;;;;;;4937240;29;20509;-77
2022/06/21 13:31:58;;;;;;;5.57;2.80;;;23.20;86.50;;;;;;4937041;29;20494;-74
2022/06/21 13:34:35;;;;;;;6.82;2.20;;;23.20;82.80;;;;;;4936283;29;20422;-74
2022/06/21 13:37:17;;;;;;;2.60;2.13;;;23.30;81.00;;;;;;4937190;29;20270;-75
2022/06/21 13:40:02;;;;;;;5.30;3.80;;;23.40;84.80;;;;;;4937112;29;20522;-77
2022/06/21 13:46:37;;;;;;;2.90;2.10;;;23.50;85.30;;;;;;5089276;27;1222795;-74
2022/06/21 13:49:20;;;;;;;4.07;2.90;;;23.40;86.20;;;;;;5109825;28;20499;-74
2022/06/21 13:51:57;;;;;;;8.43;3.70;;;23.10;82.40;;;;;;5109174;28;20831;-74
2022/06/21 13:54:34;;;;;;;4.00;2.50;;;23.00;87.70;;;;;;5106646;28;20775;-74
2022/06/21 13:57:43;;;;;;;5.33;2.20;;;23.10;86.30;;;;;;5109348;28;20440;-75
2022/06/21 14:00:09;;;;;;;3.50;1.90;;;23.10;86.00;;;;;;5108538;28;20435;-75
2022/06/21 14:02:44;;;;;;;2.33;2.13;;;23.20;86.70;;;;;;5106576;28;20426;-76
2022/06/21 14:05:31;;;;;;;3.10;2.20;;;23.10;84.70;;;;;;5109312;28;20474;-75
2022/06/21 14:08:05;;;;;;;3.50;2.07;;;23.10;87.30;;;;;;5106889;28;20829;-81
2022/06/21 14:10:47;;;;;;;6.07;2.33;;;23.20;86.00;;;;;;5109501;28;20422;-84
2022/06/21 14:13:18;;;;;;;5.93;1.90;;;23.20;87.20;;;;;;5109738;28;20419;-73
2022/06/21 14:15:47;;;;;;;3.07;2.27;;;23.40;87.20;;;;;;5108891;28;20437;-71
2022/06/21 14:18:25;;;;;;;2.83;2.00;;;23.50;87.70;;;;;;5108920;28;20978;-72
2022/06/21 14:20:57;;;;;;;5.37;2.77;;;23.60;85.50;;;;;;5108807;28;21012;-73
2022/06/21 14:23:32;;;;;;;5.30;2.00;;;23.50;84.80;;;;;;5108812;28;20411;-77
2022/06/21 14:26:15;;;;;;;3.77;2.10;;;23.40;84.00;;;;;;5106126;28;20541;-75
2022/06/21 14:29:25;;;;;;;3.30;2.20;;;23.40;84.20;;;;;;5106605;28;20423;-72
2022/06/21 14:31:56;;;;;;;4.90;2.27;;;23.50;82.90;;;;;;5026861;28;20435;-87
2022/06/21 14:34:33;;;;;;;5.03;2.07;;;23.70;81.80;;;;;;5026913;28;20460;-87
2022/06/21 14:37:16;;;;;;;3.77;1.90;;;23.80;82.90;;;;;;5065842;28;20518;-88
2022/06/21 14:39:49;;;;;;;3.17;1.63;;;23.90;80.50;;;;;;5088958;28;20415;-86
2022/06/21 14:42:25;;;;;;;3.10;1.70;;;24.00;83.20;;;;;;5089138;28;20441;-88
2022/06/21 14:45:13;;;;;;;4.43;2.17;;;23.90;80.90;;;;;;5088917;28;20872;-87
2022/06/21 14:47:58;;;;;;;2.07;1.80;;;24.10;82.90;;;;;;5088843;28;20420;-86
2022/06/21 14:50:38;;;;;;;2.70;1.90;;;24.30;81.80;;;;;;5088466;28;20415;-87
2022/06/21 14:53:07;;;;;;;4.90;2.50;;;24.50;84.00;;;;;;5088508;28;20447;-90
2022/06/21 14:55:57;;;;;;;3.00;2.13;;;24.50;78.90;;;;;;5088833;28;20461;-80
2022/06/21 14:58:38;;;;;;;2.17;1.73;;;24.30;79.50;;;;;;5089269;28;20429;-81
2022/06/21 15:01:21;;;;;;;4.00;1.90;;;24.30;81.70;;;;;;5095174;28;20472;-79
2022/06/21 15:04:00;;;;;;;4.70;2.37;;;24.30;80.00;;;;;;5095189;28;20522;-81
2022/06/21 15:06:32;;;;;;;3.90;2.30;;;24.10;77.10;;;;;;5095065;28;20506;-80
2022/06/21 15:09:07;;;;;;;4.93;2.50;;;24.00;80.80;;;;;;5094114;28;20526;-80
2022/06/21 15:11:59;;;;;;;4.37;2.17;;;23.80;79.20;;;;;;5074682;28;20431;-84
2022/06/21 15:14:32;;;;;;;3.00;2.63;;;23.80;81.70;;;;;;5094945;28;20481;-87
2022/06/21 15:17:17;;;;;;;3.03;1.97;;;23.70;80.70;;;;;;5095056;28;20442;-84
2022/06/21 15:19:54;;;;;;;4.97;2.03;;;23.70;81.10;;;;;;5094467;28;20784;-80
2022/06/21 15:22:41;;;;;;;3.63;2.10;;;23.70;79.60;;;;;;5094453;28;20416;-86
2022/06/21 15:25:25;;;;;;;5.90;2.37;;;23.80;79.60;;;;;;5094956;28;20477;-85
2022/06/21 15:28:09;;;;;;;11.53;2.10;;;23.90;80.00;;;;;;5075622;28;20423;-88
2022/06/21 15:31:03;;;;;;;2.42;1.80;;;24.00;82.40;;;;;;5093933;28;20425;-91
2022/06/21 15:33:52;;;;;;;2.40;2.03;;;24.10;77.40;;;;;;5092599;28;20218;-82
2022/06/21 15:36:36;;;;;;;2.60;1.83;;;23.90;78.90;;;;;;5092169;28;20571;-80
2022/06/21 15:39:36;;;;;;;3.73;1.60;;;23.70;79.60;;;;;;5092413;28;20537;-82
2022/06/21 15:42:28;;;;;;;4.23;2.20;;;23.50;78.10;;;;;;5071296;28;20428;-81
2022/06/21 15:44:59;;;;;;;4.70;1.90;;;23.40;79.30;;;;;;5093649;28;20467;-82
2022/06/21 15:50:37;;;;;;;2.37;2.17;;;23.30;78.90;;;;;;5091864;28;20439;-81
2022/06/21 15:53:26;;;;;;;2.67;2.13;;;23.20;78.30;;;;;;5092318;28;20968;-78
2022/06/21 15:56:00;;;;;;;2.00;1.80;;;23.10;79.20;;;;;;5094255;28;20427;-78
2022/06/21 15:58:38;;;;;;;2.30;1.90;;;23.10;81.00;;;;;;5093651;28;20438;-76
2022/06/21 16:01:22;;;;;;;6.07;2.33;;;23.20;81.50;;;;;;5093525;28;20423;-88
2022/06/21 16:04:25;;;;;;;3.93;2.30;;;23.20;81.40;;;;;;5092824;28;20941;-83
2022/06/21 16:06:54;;;;;;;3.03;1.77;;;23.20;80.70;;;;;;5093840;28;20435;-82
2022/06/21 16:09:22;;;;;;;3.20;2.10;;;23.10;82.00;;;;;;5092042;28;20420;-81
2022/06/21 16:11:58;;;;;;;2.80;1.90;;;23.20;82.70;;;;;;5095062;28;20434;-87
2022/06/21 16:14:48;;;;;;;3.10;2.27;;;23.20;80.90;;;;;;5095321;28;20486;-82
2022/06/21 16:17:21;;;;;;;4.13;1.60;;;23.10;80.40;;;;;;5091581;28;20458;-83
2022/06/21 16:20:00;;;;;;;8.07;2.23;;;23.10;80.30;;;;;;5093550;28;20953;-85
2022/06/21 16:22:35;;;;;;;4.63;2.50;;;23.10;81.40;;;;;;5073424;28;20425;-78
2022/06/21 16:25:03;;;;;;;3.80;2.10;;;23.10;80.20;;;;;;5072687;28;20506;-75
2022/06/21 16:27:38;;;;;;;2.80;2.10;;;23.00;81.60;;;;;;5073412;28;20420;-74
2022/06/21 16:30:10;;;;;;;3.73;1.70;;;22.90;79.30;;;;;;5074307;28;20669;-79
2022/06/21 16:33:22;;;;;;;2.23;2.03;;;23.00;80.90;;;;;;5074274;28;20503;-76
2022/06/21 16:35:56;;;;;;;5.20;3.33;;;23.00;81.50;;;;;;5073943;28;20512;-73
2022/06/21 16:38:41;;;;;;;3.03;2.63;;;22.90;78.50;;;;;;5073940;28;20428;-73
2022/06/21 16:44:34;;;;;;;2.90;2.10;;;22.90;81.70;;;;;;5074056;28;20434;-73
2022/06/21 16:47:19;;;;;;;4.03;2.50;;;23.00;82.90;;;;;;5073654;28;20446;-73
2022/06/21 16:49:58;;;;;;;3.50;1.60;;;23.00;80.40;;;;;;5073534;28;20428;-73
2022/06/21 16:52:40;;;;;;;4.17;2.40;;;23.20;79.90;;;;;;5073531;28;20432;-72
2022/06/21 16:55:12;;;;;;;10.03;2.57;;;23.30;80.40;;;;;;5073564;28;20904;-75
2022/06/21 16:57:39;;;;;;;3.47;1.50;;;23.30;85.60;;;;;;5073534;28;20445;-72
2022/06/21 17:00:27;;;;;;;4.33;2.33;;;23.30;82.20;;;;;;5073282;28;20424;-71
2022/06/21 17:02:57;;;;;;;7.00;2.07;;;23.30;78.60;;;;;;5073459;28;20425;-77
2022/06/21 17:05:34;;;;;;;6.13;5.53;;;23.40;82.00;;;;;;5073692;28;20824;-78
2022/06/21 17:08:00;;;;;;;3.37;1.90;;;23.40;81.00;;;;;;5073508;28;20420;-78
2022/06/21 17:13:29;;;;;;;2.43;1.50;;;23.30;77.40;;;;;;5072993;28;20432;-77
2022/06/21 17:16:04;;;;;;;2.03;1.83;;;23.10;76.20;;;;;;5072671;28;20423;-74
2022/06/21 17:18:40;;;;;;;4.20;2.10;;;23.20;78.70;;;;;;5072210;28;20432;-76
2022/06/21 17:21:24;;;;;;;2.73;1.77;;;23.20;75.70;;;;;;5072105;28;20412;-74
2022/06/21 17:24:02;;;;;;;5.67;2.60;;;23.20;77.00;;;;;;5071985;28;20634;-76